Terminal Aerodrome Forecast
Issued by NWS Albuquerque, NM

Current Version | Previous Version | Text Only | Print | Product List | Glossary On
Versions: 1 2 3 4 5 6 7 8 9 10 11 12 13 14 15 16 17
000
FTUS45 KABQ 072147 AAB
TAFABQ
TAF AMD
KABQ 072147Z 0722/0818 17011KT P6SM VCTS SCT060CB BKN120
      TEMPO 0722/0724 VRB25G40KT 5SM TSRA BKN040CB
     FM080300 11012G22KT P6SM VCSH SCT060 BKN120
     FM080500 13008KT P6SM BKN140
      TEMPO 0809/0813 SCT025=

USA.gov is the U.S. government's official web portal to all federal, state and local government web resources and services.